Terminal Aerodrome Forecast
Issued by NWS

Home | Current Version | Previous Version | Text Only | Print | Product List | Glossary On
Versions: 1 2 3 4 5 6 7 8 9 10 11 12 13 14 15
000
FTUS43 KILX 281140
TAFDEC
TAF
KDEC 281140Z 2812/2912 01004KT P6SM SKC
     FM281500 06012KT P6SM SCT050
     FM290000 04005KT P6SM SKC=

USA.gov is the U.S. government's official web portal to all federal, state and local government web resources and services.